createdAt,value
2018-03-28T00:01:34.115Z,6.20
2018-03-28T00:04:00.776Z,6.20
2018-03-28T00:06:27.246Z,6.20
2018-03-28T00:08:53.878Z,6.30
2018-03-28T00:11:20.332Z,6.30
2018-03-28T00:13:47.528Z,6.30
2018-03-28T00:16:14.166Z,6.30
2018-03-28T00:18:40.663Z,6.30
2018-03-28T00:21:07.875Z,6.40
2018-03-28T00:23:34.404Z,6.40
2018-03-28T00:26:00.876Z,6.50
2018-03-28T00:28:28.131Z,6.50
2018-03-28T00:30:55.391Z,6.40
2018-03-28T00:33:22.716Z,6.40
2018-03-28T00:35:49.170Z,6.40
2018-03-28T00:38:16.387Z,6.40
2018-03-28T00:40:42.897Z,6.40
2018-03-28T00:43:09.347Z,6.40
2018-03-28T00:45:35.892Z,6.50
2018-03-28T00:48:02.369Z,6.50
2018-03-28T00:50:28.899Z,6.50
2018-03-28T00:52:56.202Z,6.60
2018-03-28T00:55:22.748Z,6.60
2018-03-28T00:57:49.242Z,6.60
2018-03-28T01:00:15.712Z,6.60
2018-03-28T01:02:42.207Z,6.60
2018-03-28T01:05:08.886Z,6.60
2018-03-28T01:07:35.384Z,6.70
2018-03-28T01:10:02.075Z,6.70
2018-03-28T01:12:28.531Z,6.70
2018-03-28T01:14:55.820Z,6.60
2018-03-28T01:17:22.354Z,6.60
2018-03-28T01:19:48.836Z,6.60
2018-03-28T01:22:15.309Z,6.60
2018-03-28T01:24:41.782Z,6.60
2018-03-28T01:27:08.393Z,6.60
2018-03-28T01:29:34.899Z,6.60
2018-03-28T01:32:02.151Z,6.50
2018-03-28T01:34:29.356Z,6.50
2018-03-28T01:36:55.968Z,6.50
2018-03-28T01:39:22.498Z,6.40
2018-03-28T01:41:49.027Z,6.40
2018-03-28T01:44:15.467Z,6.30
2018-03-28T01:46:41.976Z,6.30
2018-03-28T01:49:09.189Z,6.30
2018-03-28T01:51:35.651Z,6.30
2018-03-28T01:54:02.880Z,6.20
2018-03-28T01:56:29.435Z,6.20
2018-03-28T01:58:55.896Z,6.20
2018-03-28T02:01:22.368Z,6.20
2018-03-28T02:03:48.936Z,6.20
2018-03-28T02:06:16.175Z,6.30
2018-03-28T02:08:42.748Z,6.20
2018-03-28T02:11:09.224Z,6.30
2018-03-28T02:13:35.811Z,6.30
2018-03-28T02:16:03.252Z,6.30
2018-03-28T02:18:30.507Z,6.20
2018-03-28T02:20:57.760Z,6.30
2018-03-28T02:23:24.968Z,6.30
2018-03-28T02:25:51.452Z,6.30
2018-03-28T02:28:17.995Z,6.30
2018-03-28T02:30:44.444Z,6.30
2018-03-28T02:33:11.012Z,6.40
2018-03-28T02:35:37.452Z,6.30
2018-03-28T02:38:03.916Z,6.40
2018-03-28T02:40:31.250Z,6.40
2018-03-28T02:42:57.744Z,6.40
2018-03-28T02:45:24.281Z,6.40
2018-03-28T02:47:50.724Z,6.40
2018-03-28T02:50:17.286Z,6.40
2018-03-28T02:52:43.756Z,6.40
2018-03-28T02:55:10.983Z,6.30
2018-03-28T02:57:37.469Z,6.30
2018-03-28T03:00:03.942Z,6.30
2018-03-28T03:02:30.437Z,6.30
2018-03-28T03:04:56.892Z,6.30
2018-03-28T03:07:23.403Z,6.30
2018-03-28T03:09:49.871Z,6.40
2018-03-28T03:12:16.284Z,6.40
2018-03-28T03:14:42.751Z,6.40
2018-03-28T03:17:09.273Z,6.30
2018-03-28T03:19:35.738Z,6.40
2018-03-28T03:22:02.939Z,6.40
2018-03-28T03:24:29.532Z,6.30
2018-03-28T03:26:56.808Z,6.30
2018-03-28T03:29:23.258Z,6.30
2018-03-28T03:31:49.906Z,6.30
2018-03-28T03:34:16.379Z,6.30
2018-03-28T03:36:43.580Z,6.40
2018-03-28T03:39:10.057Z,6.30
2018-03-28T03:41:37.268Z,6.40
2018-03-28T03:44:03.717Z,6.40
2018-03-28T03:46:30.251Z,6.40
2018-03-28T03:48:56.719Z,6.40
2018-03-28T03:51:23.227Z,6.40
2018-03-28T03:53:49.732Z,6.50
2018-03-28T03:56:16.331Z,6.50
2018-03-28T03:58:43.616Z,6.50
2018-03-28T04:01:10.120Z,6.50
2018-03-28T04:03:37.454Z,6.60
2018-03-28T04:06:03.959Z,6.50
2018-03-28T04:08:30.551Z,6.60
2018-03-28T04:10:57.004Z,6.60
2018-03-28T04:13:23.549Z,6.60
2018-03-28T04:15:50.072Z,6.70
2018-03-28T04:18:16.596Z,6.60
2018-03-28T04:20:43.043Z,6.70
2018-03-28T04:23:09.499Z,6.70
2018-03-28T04:25:36.012Z,6.70
2018-03-28T04:28:02.517Z,6.70
2018-03-28T04:30:29.821Z,6.70
2018-03-28T04:32:56.320Z,6.70
2018-03-28T04:35:22.803Z,6.70
2018-03-28T04:37:49.317Z,6.70
2018-03-28T04:40:15.798Z,6.70
2018-03-28T04:42:44.007Z,6.70
2018-03-28T04:45:10.508Z,6.70
2018-03-28T04:47:37.709Z,6.70
2018-03-28T04:50:04.176Z,6.70
2018-03-28T04:52:30.782Z,6.80
2018-03-28T04:54:57.330Z,6.80
2018-03-28T04:57:23.799Z,6.80
2018-03-28T04:59:51.019Z,6.80
2018-03-28T05:02:17.548Z,6.80
2018-03-28T05:04:44.072Z,6.90
2018-03-28T05:07:10.588Z,6.90
2018-03-28T05:09:37.744Z,6.90
2018-03-28T05:12:04.312Z,6.90
2018-03-28T05:14:32.200Z,6.90
2018-03-28T05:16:58.694Z,6.90
2018-03-28T05:19:25.165Z,6.90
2018-03-28T05:21:53.926Z,6.90
2018-03-28T05:24:20.857Z,7.00
2018-03-28T05:26:47.332Z,7.00
2018-03-28T05:29:14.664Z,7.00
2018-03-28T05:31:41.131Z,7.00
2018-03-28T05:34:08.356Z,7.10
2018-03-28T05:36:34.960Z,6.90
2018-03-28T05:39:01.605Z,7.10
2018-03-28T05:41:28.360Z,7.10
2018-03-28T05:43:55.006Z,7.10
2018-03-28T05:46:21.498Z,7.10
2018-03-28T05:48:48.158Z,7.10
2018-03-28T05:51:14.691Z,7.10
2018-03-28T05:53:41.235Z,7.10
2018-03-28T05:56:07.764Z,7.20
2018-03-28T05:58:34.199Z,7.20
2018-03-28T06:01:00.662Z,7.20
2018-03-28T06:03:27.869Z,7.20
2018-03-28T06:05:54.407Z,7.20
2018-03-28T06:08:20.870Z,7.30
2018-03-28T06:10:47.432Z,7.30
2018-03-28T06:13:14.892Z,7.40
2018-03-28T06:15:42.214Z,7.50
2018-03-28T06:18:08.706Z,7.50
2018-03-28T06:20:35.224Z,7.50
2018-03-28T06:23:01.765Z,7.60
2018-03-28T06:25:28.986Z,7.70
2018-03-28T06:27:55.548Z,7.70
2018-03-28T06:30:22.359Z,7.70
2018-03-28T06:32:48.939Z,7.80
2018-03-28T06:35:15.585Z,7.90
2018-03-28T06:37:42.192Z,7.90
2018-03-28T06:40:09.423Z,7.90
2018-03-28T06:42:35.912Z,7.80
2018-03-28T06:45:02.712Z,7.90
2018-03-28T06:47:29.951Z,7.90
2018-03-28T06:49:56.468Z,7.90
2018-03-28T06:52:22.998Z,7.90
2018-03-28T06:54:49.503Z,7.90
2018-03-28T06:57:15.955Z,7.90
2018-03-28T06:59:42.496Z,7.90
2018-03-28T07:02:08.984Z,7.90
2018-03-28T07:04:35.516Z,7.90
2018-03-28T07:07:02.763Z,8.10
2018-03-28T07:09:30.060Z,8.20
2018-03-28T07:11:56.540Z,8.20
2018-03-28T07:14:23.157Z,8.30
2018-03-28T07:16:49.780Z,8.40
2018-03-28T07:19:16.263Z,8.70
2018-03-28T07:21:42.790Z,8.80
2018-03-28T07:24:10.164Z,8.90
2018-03-28T07:26:36.643Z,8.90
2018-03-28T07:29:03.393Z,8.90
2018-03-28T07:31:29.861Z,8.80
2018-03-28T07:33:57.089Z,8.60
2018-03-28T07:36:23.551Z,8.60
2018-03-28T07:38:50.832Z,8.50
2018-03-28T07:41:17.325Z,8.40
2018-03-28T07:43:44.542Z,8.40
2018-03-28T07:46:11.156Z,8.40
2018-03-28T07:48:37.617Z,8.40
2018-03-28T07:51:04.136Z,8.40
2018-03-28T07:53:30.615Z,8.40
2018-03-28T07:55:57.898Z,8.60
2018-03-28T07:58:24.367Z,8.60
2018-03-28T08:00:50.893Z,8.80
2018-03-28T08:03:17.415Z,9.00
2018-03-28T08:05:43.964Z,9.40
2018-03-28T08:08:10.643Z,9.80
2018-03-28T08:10:37.308Z,10.40
2018-03-28T08:13:03.800Z,11.40
2018-03-28T08:15:30.362Z,11.70
2018-03-28T08:17:57.682Z,11.30
2018-03-28T08:20:24.253Z,11.30
2018-03-28T08:22:51.558Z,11.50
2018-03-28T08:25:18.078Z,11.50
2018-03-28T08:27:44.580Z,11.70
2018-03-28T08:30:11.161Z,11.60
2018-03-28T08:32:37.672Z,11.40
2018-03-28T08:35:04.211Z,11.40
2018-03-28T08:37:30.711Z,11.80
2018-03-28T08:39:57.914Z,12.00
2018-03-28T08:42:24.624Z,12.00
2018-03-28T08:44:51.202Z,12.30
2018-03-28T08:47:18.040Z,12.50
2018-03-28T08:49:44.555Z,12.50
2018-03-28T08:52:11.106Z,12.60
2018-03-28T08:54:37.896Z,12.30
2018-03-28T08:57:05.250Z,11.60
2018-03-28T08:59:32.637Z,11.60
2018-03-28T09:01:59.180Z,11.60
2018-03-28T09:04:25.921Z,11.50
2018-03-28T09:06:52.404Z,11.20
2018-03-28T09:09:19.086Z,11.00
2018-03-28T09:11:45.600Z,11.10
2018-03-28T09:14:12.115Z,11.20
2018-03-28T09:16:39.360Z,11.00
2018-03-28T09:19:05.856Z,11.00
2018-03-28T09:21:32.396Z,10.80
2018-03-28T09:23:59.093Z,10.40
2018-03-28T09:26:26.479Z,10.30
2018-03-28T09:28:53.056Z,10.20
2018-03-28T09:31:20.410Z,10.30
2018-03-28T09:33:48.063Z,10.30
2018-03-28T09:36:15.581Z,10.40
2018-03-28T09:38:42.228Z,10.40
2018-03-28T09:41:08.870Z,10.30
2018-03-28T09:43:35.368Z,10.40
2018-03-28T09:46:02.008Z,10.10
2018-03-28T09:48:28.543Z,10.10
2018-03-28T09:50:55.763Z,10.40
2018-03-28T09:53:22.366Z,10.40
2018-03-28T09:55:48.853Z,10.70
2018-03-28T09:58:16.115Z,11.30
2018-03-28T10:00:45.321Z,11.20
2018-03-28T10:03:11.891Z,11.20
2018-03-28T10:05:38.520Z,11.00
2018-03-28T10:08:05.019Z,11.20
2018-03-28T10:10:32.258Z,11.80
2018-03-28T10:12:58.836Z,11.80
2018-03-28T10:15:25.433Z,12.30
2018-03-28T10:17:51.997Z,12.50
2018-03-28T10:20:18.523Z,12.30
2018-03-28T10:22:45.255Z,12.20
2018-03-28T10:25:15.482Z,12.20
2018-03-28T10:27:42.089Z,12.30
2018-03-28T10:30:08.683Z,12.20
2018-03-28T10:32:35.389Z,12.90
2018-03-28T10:35:02.244Z,13.00
2018-03-28T10:37:29.005Z,13.30
2018-03-28T10:39:55.493Z,13.70
2018-03-28T10:42:24.636Z,14.10
2018-03-28T10:44:51.164Z,14.10
2018-03-28T10:47:18.205Z,14.00
2018-03-28T10:49:45.024Z,14.10
2018-03-28T10:52:12.586Z,13.30
2018-03-28T10:54:39.983Z,13.10
2018-03-28T10:57:06.507Z,13.10
2018-03-28T10:59:33.085Z,13.30
2018-03-28T11:01:59.730Z,13.60
2018-03-28T11:04:27.075Z,13.40
2018-03-28T11:06:53.576Z,13.40
2018-03-28T11:09:28.050Z,12.80
2018-03-28T11:11:54.885Z,12.80
2018-03-28T11:14:21.637Z,12.40
2018-03-28T11:16:49.060Z,12.30
2018-03-28T11:19:15.736Z,12.30
2018-03-28T11:21:43.085Z,12.70
2018-03-28T11:24:10.356Z,12.70
2018-03-28T11:26:38.428Z,12.70
2018-03-28T11:29:07.519Z,13.00
2018-03-28T11:31:39.793Z,13.30
2018-03-28T11:34:07.573Z,13.50
2018-03-28T11:36:36.405Z,13.90
2018-03-28T11:39:02.897Z,14.10
2018-03-28T11:41:29.539Z,13.70
2018-03-28T11:43:56.846Z,14.10
2018-03-28T11:46:24.079Z,14.10
2018-03-28T11:48:50.576Z,14.10
2018-03-28T11:51:17.112Z,13.80
2018-03-28T11:53:43.567Z,13.30
2018-03-28T11:56:10.099Z,13.50
2018-03-28T11:58:36.682Z,13.30
2018-03-28T12:01:04.000Z,13.20
2018-03-28T12:03:30.560Z,13.30
2018-03-28T12:05:57.820Z,13.20
2018-03-28T12:08:24.450Z,13.20
2018-03-28T12:10:51.692Z,13.10
2018-03-28T12:13:18.232Z,13.10
2018-03-28T12:15:44.793Z,13.40
2018-03-28T12:18:11.518Z,13.40
2018-03-28T12:20:38.838Z,12.80
2018-03-28T12:23:05.463Z,12.80
2018-03-28T12:25:32.104Z,12.30
2018-03-28T12:27:58.942Z,12.10
2018-03-28T12:30:25.717Z,11.90
2018-03-28T12:32:52.152Z,12.00
2018-03-28T12:35:18.750Z,12.00
2018-03-28T12:37:45.462Z,11.80
2018-03-28T12:40:12.036Z,11.60
2018-03-28T12:42:38.582Z,11.60
2018-03-28T12:45:05.140Z,11.80
2018-03-28T12:47:34.086Z,11.80
2018-03-28T12:50:02.301Z,11.70
2018-03-28T13:04:36.064Z,11.80
2018-03-28T13:07:02.568Z,12.20
2018-03-28T13:09:29.068Z,12.60
2018-03-28T13:11:56.493Z,13.10
2018-03-28T13:14:23.029Z,13.10
2018-03-28T13:16:49.802Z,13.30
2018-03-28T13:19:17.139Z,13.10
2018-03-28T13:21:44.124Z,13.00
2018-03-28T13:24:10.763Z,13.10
2018-03-28T13:26:37.259Z,13.00
2018-03-28T13:29:03.842Z,12.80
2018-03-28T13:31:30.454Z,12.80
2018-03-28T13:33:57.808Z,12.60
2018-03-28T13:36:24.295Z,12.60
2018-03-28T13:38:50.978Z,12.70
2018-03-28T13:41:17.539Z,12.70
2018-03-28T13:43:44.150Z,12.60
2018-03-28T13:46:10.680Z,12.70
2018-03-28T13:48:38.030Z,12.70
2018-03-28T13:51:04.624Z,12.70
2018-03-28T13:53:31.097Z,12.90
2018-03-28T13:55:58.513Z,12.60
2018-03-28T13:58:25.048Z,12.60
2018-03-28T14:00:51.731Z,12.60
2018-03-28T14:03:19.172Z,12.60
2018-03-28T14:05:45.867Z,12.60
2018-03-28T14:08:13.156Z,12.80
2018-03-28T14:10:39.725Z,12.80
2018-03-28T14:13:07.118Z,12.80
2018-03-28T14:15:33.798Z,12.80
2018-03-28T14:18:00.262Z,12.50
2018-03-28T14:20:26.872Z,12.30
2018-03-28T14:22:53.331Z,12.20
2018-03-28T14:25:21.266Z,12.20
2018-03-28T14:27:48.152Z,12.10
2018-03-28T14:30:14.819Z,12.00
2018-03-28T14:32:42.304Z,11.80
2018-03-28T14:35:08.889Z,11.80
2018-03-28T14:37:35.367Z,11.60
2018-03-28T14:40:01.852Z,11.50
2018-03-28T14:42:28.515Z,11.50
2018-03-28T14:44:55.120Z,11.40
2018-03-28T14:47:21.635Z,11.30
2018-03-28T14:49:48.934Z,11.10
2018-03-28T14:52:15.526Z,11.10
2018-03-28T14:54:42.759Z,11.00
2018-03-28T14:57:10.946Z,11.00
2018-03-28T14:59:37.526Z,10.80
2018-03-28T15:02:04.021Z,10.70
2018-03-28T15:04:31.359Z,10.50
2018-03-28T15:06:57.895Z,10.40
2018-03-28T15:09:24.444Z,10.30
2018-03-28T15:11:51.821Z,10.00
2018-03-28T15:14:18.415Z,10.00
2018-03-28T15:16:45.063Z,9.90
2018-03-28T15:19:12.327Z,9.80
2018-03-28T15:21:39.656Z,9.80
2018-03-28T15:24:06.109Z,9.80
2018-03-28T15:26:33.379Z,9.70
2018-03-28T15:28:59.870Z,9.70
2018-03-28T15:31:27.248Z,9.70
2018-03-28T15:33:53.736Z,9.60
2018-03-28T15:36:20.183Z,9.60
2018-03-28T15:38:46.796Z,9.60
2018-03-28T15:41:13.285Z,9.50
2018-03-28T15:43:39.862Z,9.40
2018-03-28T15:46:06.443Z,9.40
2018-03-28T15:48:32.943Z,9.30
2018-03-28T15:50:59.605Z,9.30
2018-03-28T15:53:26.085Z,9.30
2018-03-28T15:55:52.563Z,9.40
2018-03-28T15:58:19.176Z,9.30
2018-03-28T16:00:45.713Z,9.30
2018-03-28T16:03:12.290Z,9.30
2018-03-28T16:05:38.909Z,9.30
2018-03-28T16:08:05.533Z,9.20
2018-03-28T16:10:33.069Z,9.20
2018-03-28T16:12:59.556Z,9.30
2018-03-28T16:15:26.107Z,9.30
2018-03-28T16:17:52.638Z,9.30
2018-03-28T16:20:19.321Z,9.40
2018-03-28T16:22:45.854Z,9.40
2018-03-28T16:25:14.918Z,9.40
2018-03-28T16:27:44.130Z,9.50
2018-03-28T16:30:15.281Z,9.40
2018-03-28T16:32:42.465Z,9.50
2018-03-28T16:35:09.855Z,9.50
2018-03-28T16:37:37.214Z,9.50
2018-03-28T16:40:03.768Z,9.50
2018-03-28T16:42:33.074Z,9.50
2018-03-28T16:44:59.650Z,9.50
2018-03-28T16:47:26.244Z,9.50
2018-03-28T16:49:52.769Z,9.50
2018-03-28T16:52:20.655Z,9.50
2018-03-28T16:54:47.433Z,9.40
2018-03-28T16:57:14.012Z,9.50
2018-03-28T16:59:40.623Z,9.50
2018-03-28T17:02:07.423Z,9.50
2018-03-28T17:04:33.958Z,9.50
2018-03-28T17:07:00.557Z,9.50
2018-03-28T17:09:27.196Z,9.50
2018-03-28T17:11:54.522Z,9.40
2018-03-28T17:14:21.056Z,9.40
2018-03-28T17:16:48.015Z,9.40
2018-03-28T17:19:15.065Z,9.40
2018-03-28T17:21:41.970Z,9.40
2018-03-28T17:24:09.369Z,9.40
2018-03-28T17:26:35.975Z,9.30
2018-03-28T17:29:02.608Z,9.40
2018-03-28T17:31:29.249Z,9.40
2018-03-28T17:33:55.724Z,9.40
2018-03-28T17:36:34.284Z,9.40
2018-03-28T17:41:35.515Z,9.30
2018-03-28T17:44:02.078Z,9.30
2018-03-28T17:46:28.696Z,9.30
2018-03-28T17:48:55.544Z,9.20
2018-03-28T17:51:22.264Z,9.20
2018-03-28T17:53:48.768Z,9.20
2018-03-28T17:56:15.855Z,9.20
2018-03-28T17:58:42.782Z,9.20
2018-03-28T18:01:10.473Z,9.20
2018-03-28T18:03:37.967Z,9.40
2018-03-28T18:06:05.491Z,9.30
2018-03-28T18:08:32.892Z,9.30
2018-03-28T18:10:59.461Z,9.40
2018-03-28T18:13:26.091Z,9.30
2018-03-28T18:15:53.139Z,9.30
2018-03-28T18:18:20.581Z,9.40
2018-03-28T18:20:48.056Z,9.40
2018-03-28T18:23:15.733Z,9.30
2018-03-28T18:25:42.580Z,9.40
2018-03-28T18:28:09.402Z,9.30
2018-03-28T18:30:36.748Z,9.40
2018-03-28T18:33:03.509Z,9.40
2018-03-28T18:35:30.071Z,9.40
2018-03-28T18:41:00.792Z,9.30
2018-03-28T18:43:28.011Z,9.30
2018-03-28T18:45:54.611Z,9.30
2018-03-28T18:48:21.399Z,9.30
2018-03-28T18:50:49.243Z,9.30
2018-03-28T18:53:16.024Z,9.20
2018-03-28T18:55:43.341Z,9.30
2018-03-28T18:58:10.019Z,9.30
2018-03-28T19:00:37.400Z,9.30
2018-03-28T19:03:04.082Z,9.30
2018-03-28T19:05:31.440Z,9.30
2018-03-28T19:07:58.008Z,9.30
2018-03-28T19:10:24.863Z,9.30
2018-03-28T19:12:52.578Z,9.40
2018-03-28T19:15:20.278Z,9.30
2018-03-28T19:17:48.026Z,9.30
2018-03-28T19:20:14.652Z,9.30
2018-03-28T19:22:42.519Z,9.20
2018-03-28T19:25:09.369Z,9.20
2018-03-28T19:27:36.677Z,9.00
2018-03-28T19:30:03.295Z,9.00
2018-03-28T19:32:30.312Z,9.00
2018-03-28T19:34:57.131Z,9.00
2018-03-28T19:37:23.757Z,8.90
2018-03-28T19:39:50.271Z,8.80
2018-03-28T19:42:16.827Z,8.80
2018-03-28T19:44:44.323Z,8.70
2018-03-28T19:47:12.680Z,8.70
2018-03-28T19:49:39.682Z,8.60
2018-03-28T19:52:06.399Z,8.60
2018-03-28T19:54:33.037Z,8.50
2018-03-28T19:56:59.744Z,8.60
2018-03-28T19:59:26.367Z,8.50
2018-03-28T20:01:53.053Z,8.40
2018-03-28T20:04:19.673Z,8.40
2018-03-28T20:06:47.024Z,8.40
2018-03-28T20:09:13.744Z,8.40
2018-03-28T20:11:40.382Z,8.40
2018-03-28T20:14:07.123Z,8.40
2018-03-28T20:16:33.675Z,8.30
2018-03-28T20:19:01.026Z,8.30
2018-03-28T20:21:27.629Z,8.30
2018-03-28T20:23:54.307Z,8.30
2018-03-28T20:26:21.085Z,8.30
2018-03-28T20:28:47.635Z,8.30
2018-03-28T20:31:14.275Z,8.30
2018-03-28T20:33:41.024Z,8.30
2018-03-28T20:36:08.386Z,8.30
2018-03-28T20:38:35.024Z,8.30
2018-03-28T20:41:02.144Z,8.30
2018-03-28T20:43:28.631Z,8.40
2018-03-28T20:45:55.174Z,8.40
2018-03-28T20:48:46.067Z,8.40
2018-03-28T20:51:12.605Z,8.40
2018-03-28T20:53:39.291Z,8.50
2018-03-28T20:56:05.847Z,8.60
2018-03-28T20:58:32.424Z,8.70
2018-03-28T21:00:59.714Z,8.90
2018-03-28T21:03:26.601Z,8.80
2018-03-28T21:05:53.172Z,9.00
2018-03-28T21:08:20.444Z,9.00
2018-03-28T21:10:46.965Z,9.00
2018-03-28T21:13:13.565Z,9.00
2018-03-28T21:15:40.871Z,9.10
2018-03-28T21:18:07.543Z,9.10
2018-03-28T21:20:34.017Z,9.00
2018-03-28T21:23:00.637Z,9.10
2018-03-28T21:25:27.940Z,9.00
2018-03-28T21:27:54.440Z,9.00
2018-03-28T21:30:21.724Z,9.00
2018-03-28T21:32:48.301Z,8.90
2018-03-28T21:35:14.914Z,8.90
2018-03-28T21:37:41.429Z,8.80
2018-03-28T21:40:08.074Z,8.70
2018-03-28T21:42:34.719Z,8.70
2018-03-28T21:45:08.722Z,8.60
2018-03-28T21:50:38.522Z,8.50
2018-03-28T21:59:01.075Z,8.40
2018-03-28T22:01:28.303Z,8.40
2018-03-28T22:03:54.814Z,8.40
2018-03-28T22:06:36.158Z,8.40
2018-03-28T22:11:43.045Z,8.40
2018-03-28T22:14:10.483Z,8.40
2018-03-28T22:16:37.784Z,8.40
2018-03-28T22:19:04.262Z,8.40
2018-03-28T22:21:30.697Z,8.30
2018-03-28T22:23:57.248Z,8.30
2018-03-28T22:26:23.672Z,8.20
2018-03-28T22:28:50.309Z,8.10
2018-03-28T22:31:16.785Z,8.00
2018-03-28T22:33:43.351Z,7.90
2018-03-28T22:36:09.854Z,7.90
2018-03-28T22:38:37.019Z,7.80
2018-03-28T22:41:03.446Z,7.80
2018-03-28T22:43:29.854Z,7.70
2018-03-28T22:45:56.378Z,7.70
2018-03-28T22:48:22.794Z,7.60
2018-03-28T22:50:49.504Z,7.60
2018-03-28T22:53:15.978Z,7.50
2018-03-28T22:55:43.167Z,7.50
2018-03-28T22:58:09.644Z,7.50
2018-03-28T23:00:36.122Z,7.50
2018-03-28T23:03:02.594Z,7.50
2018-03-28T23:05:29.080Z,7.50
2018-03-28T23:07:55.632Z,7.50
2018-03-28T23:10:22.104Z,7.50
2018-03-28T23:12:50.150Z,7.50
2018-03-28T23:15:16.625Z,7.50
2018-03-28T23:17:43.838Z,7.40
2018-03-28T23:20:10.334Z,7.40
2018-03-28T23:22:36.794Z,7.40
2018-03-28T23:25:04.002Z,7.20
2018-03-28T23:27:31.209Z,7.10
2018-03-28T23:29:59.483Z,7.00
2018-03-28T23:32:25.977Z,7.00
2018-03-28T23:34:52.385Z,6.90
2018-03-28T23:37:18.877Z,6.80
2018-03-28T23:39:45.352Z,6.70
2018-03-28T23:42:12.520Z,6.50
2018-03-28T23:44:39.014Z,6.50
2018-03-28T23:47:06.416Z,6.40
2018-03-28T23:49:32.914Z,6.40
2018-03-28T23:51:59.517Z,6.30
2018-03-28T23:54:25.938Z,6.20
2018-03-28T23:56:52.453Z,6.10
2018-03-28T23:59:18.952Z,6.00
